createdAt,value
2023-02-25T00:00:44.289Z,6.70
2023-02-25T00:07:02.656Z,6.70
2023-02-25T00:13:08.794Z,6.70
2023-02-25T00:19:10.677Z,6.60
2023-02-25T00:25:29.204Z,6.60
2023-02-25T00:31:48.726Z,6.30
2023-02-25T00:37:43.899Z,6.30
2023-02-25T00:43:40.070Z,6.40
2023-02-25T00:49:59.667Z,6.40
2023-02-25T00:56:18.122Z,6.50
2023-02-25T01:02:12.506Z,6.30
2023-02-25T01:08:06.948Z,6.30
2023-02-25T01:14:25.815Z,6.40
2023-02-25T01:20:44.188Z,6.60
2023-02-25T01:26:39.609Z,6.50
2023-02-25T01:32:34.216Z,6.70
2023-02-25T01:38:53.835Z,6.60
2023-02-25T01:45:15.310Z,6.70
2023-02-25T01:51:10.674Z,6.70
2023-02-25T01:57:09.520Z,6.70
2023-02-25T02:03:31.009Z,6.60
2023-02-25T02:09:59.974Z,6.70
2023-02-25T02:16:12.837Z,6.40
2023-02-25T02:22:13.192Z,6.20
2023-02-25T02:29:07.770Z,6.00
2023-02-25T02:35:32.100Z,6.00
2023-02-25T02:41:28.956Z,6.00
2023-02-25T02:47:30.320Z,6.20
2023-02-25T02:53:53.969Z,6.30
2023-02-25T03:00:28.358Z,6.10
2023-02-25T03:06:23.881Z,6.20
2023-02-25T03:12:18.518Z,6.30
2023-02-25T03:18:43.407Z,6.50
2023-02-25T03:25:13.581Z,6.50
2023-02-25T03:31:10.835Z,6.60
2023-02-25T03:37:26.039Z,6.70
2023-02-25T03:43:50.927Z,6.80
2023-02-25T03:50:10.625Z,6.80
2023-02-25T03:56:05.717Z,6.90
2023-02-25T04:02:00.209Z,6.90
2023-02-25T04:08:19.713Z,6.90
2023-02-25T04:14:38.095Z,7.00
2023-02-25T04:20:35.168Z,7.00
2023-02-25T04:26:29.628Z,7.10
2023-02-25T04:32:48.278Z,6.90
2023-02-25T04:39:06.744Z,6.90
2023-02-25T04:45:01.106Z,6.70
2023-02-25T04:50:56.004Z,6.20
2023-02-25T04:57:14.611Z,6.20
2023-02-25T05:03:33.504Z,6.30
2023-02-25T05:09:28.052Z,6.40
2023-02-25T05:15:22.589Z,6.50
2023-02-25T05:21:41.049Z,6.50
2023-02-25T05:27:59.710Z,6.70
2023-02-25T05:33:54.129Z,6.40
2023-02-25T05:39:48.607Z,6.20
2023-02-25T05:46:11.714Z,5.90
2023-02-25T05:52:30.283Z,6.00
2023-02-25T05:58:24.702Z,6.10
2023-02-25T06:04:19.240Z,6.20
2023-02-25T06:10:39.130Z,6.40
2023-02-25T06:16:57.492Z,6.60
2023-02-25T06:22:52.015Z,6.70
2023-02-25T06:28:46.448Z,6.70
2023-02-25T06:35:06.588Z,6.70
2023-02-25T06:41:24.975Z,6.70
2023-02-25T06:47:19.446Z,6.60
2023-02-25T06:53:13.965Z,6.80
2023-02-25T06:59:35.559Z,6.90
2023-02-25T07:05:54.047Z,6.90
2023-02-25T07:11:48.465Z,6.90
2023-02-25T07:17:42.937Z,6.90
2023-02-25T07:24:01.457Z,6.70
2023-02-25T07:30:19.864Z,6.80
2023-02-25T07:36:14.334Z,6.70
2023-02-25T07:42:08.810Z,7.00
2023-02-25T07:48:27.802Z,6.40
2023-02-25T07:54:46.274Z,6.10
2023-02-25T08:00:41.822Z,6.30
2023-02-25T08:06:40.414Z,6.30
2023-02-25T08:12:58.917Z,6.50
2023-02-25T08:19:17.298Z,6.70
2023-02-25T08:25:11.694Z,6.40
2023-02-25T08:31:07.923Z,5.80
2023-02-25T08:37:27.266Z,5.70
2023-02-25T08:43:48.650Z,6.10
2023-02-25T08:49:43.251Z,6.70
2023-02-25T08:55:39.958Z,7.20
2023-02-25T09:01:58.847Z,7.50
2023-02-25T09:08:17.256Z,7.60
2023-02-25T09:14:12.012Z,7.80
2023-02-25T09:20:11.591Z,8.20
2023-02-25T09:26:30.059Z,8.50
2023-02-25T09:32:48.681Z,8.50
2023-02-25T09:38:43.366Z,8.60
2023-02-25T09:44:43.570Z,8.60
2023-02-25T09:51:21.371Z,8.60
2023-02-25T09:57:41.557Z,8.90
2023-02-25T10:03:40.691Z,8.60
2023-02-25T10:09:50.333Z,8.50
2023-02-25T10:16:33.755Z,9.00
2023-02-25T10:22:56.764Z,8.60
2023-02-25T10:28:53.297Z,8.10
2023-02-25T10:34:48.245Z,8.40
2023-02-25T10:41:06.799Z,8.60
2023-02-25T10:47:30.039Z,7.80
2023-02-25T10:53:24.450Z,6.10
2023-02-25T10:59:21.902Z,5.90
2023-02-25T11:05:42.135Z,6.50
2023-02-25T11:12:02.128Z,7.60
2023-02-25T11:17:59.760Z,7.70
2023-02-25T11:23:55.069Z,7.50
2023-02-25T11:30:13.522Z,7.40
2023-02-25T11:36:35.852Z,7.80
2023-02-25T11:42:31.368Z,8.30
2023-02-25T11:48:29.212Z,8.10
2023-02-25T11:55:25.829Z,8.20
2023-02-25T12:01:47.341Z,8.40
2023-02-25T12:07:51.427Z,8.60
2023-02-25T12:14:08.975Z,8.80
2023-02-25T12:20:50.318Z,9.20
2023-02-25T12:27:20.763Z,7.70
2023-02-25T12:33:33.877Z,6.60
2023-02-25T12:40:06.602Z,6.70
2023-02-25T12:46:45.596Z,7.50
2023-02-25T12:53:10.030Z,7.60
2023-02-25T12:59:11.020Z,7.40
2023-02-25T13:05:20.284Z,7.40
2023-02-25T13:12:10.061Z,7.50
2023-02-25T13:18:32.120Z,7.70
2023-02-25T13:24:27.547Z,8.20
2023-02-25T13:30:50.959Z,8.40
2023-02-25T13:37:38.029Z,8.70
2023-02-25T13:44:05.518Z,8.40
2023-02-25T13:50:11.907Z,7.80
2023-02-25T13:56:40.290Z,8.00
2023-02-25T14:03:36.634Z,8.20
2023-02-25T14:10:13.896Z,8.20
2023-02-25T14:16:08.301Z,8.40
2023-02-25T14:22:24.804Z,8.20
2023-02-25T14:28:46.168Z,8.20
2023-02-25T14:35:23.206Z,8.20
2023-02-25T14:41:24.015Z,8.10
2023-02-25T14:47:34.509Z,8.30
2023-02-25T14:54:23.730Z,8.80
2023-02-25T15:01:01.032Z,9.00
2023-02-25T15:07:13.921Z,8.40
2023-02-25T15:13:44.631Z,7.90
2023-02-25T15:20:22.939Z,7.80
2023-02-25T15:26:48.644Z,7.70
2023-02-25T15:32:45.884Z,7.70
2023-02-25T15:38:46.974Z,7.70
2023-02-25T15:45:27.818Z,7.70
2023-02-25T15:51:51.443Z,7.60
2023-02-25T15:57:45.956Z,7.40
2023-02-25T16:03:41.081Z,7.30
2023-02-25T16:10:02.737Z,7.30
2023-02-25T16:16:21.823Z,7.10
2023-02-25T16:22:16.932Z,6.90
2023-02-25T16:28:18.421Z,6.90
2023-02-25T16:34:55.152Z,6.80
2023-02-25T16:41:14.109Z,6.80
2023-02-25T16:47:27.182Z,6.70
2023-02-25T16:53:23.109Z,6.70
2023-02-25T16:59:41.638Z,6.60
2023-02-25T17:06:04.564Z,6.60
2023-02-25T17:11:58.921Z,6.50
2023-02-25T17:18:19.040Z,6.40
2023-02-25T17:24:37.514Z,6.40
2023-02-25T17:31:09.719Z,6.30
2023-02-25T17:37:05.463Z,6.20
2023-02-25T17:43:16.445Z,6.20
2023-02-25T17:49:35.622Z,6.20
2023-02-25T17:55:54.002Z,6.20
2023-02-25T18:01:51.113Z,6.10
2023-02-25T18:07:58.658Z,6.10
2023-02-25T18:14:39.136Z,6.10
2023-02-25T18:20:58.529Z,6.00
2023-02-25T18:27:01.870Z,6.10
2023-02-25T18:32:59.520Z,6.00
2023-02-25T18:39:18.140Z,6.00
2023-02-25T18:45:36.592Z,6.00
2023-02-25T18:51:30.955Z,6.00
2023-02-25T18:57:26.362Z,6.00
2023-02-25T19:03:46.071Z,5.90
2023-02-25T19:10:06.035Z,5.90
2023-02-25T19:16:00.917Z,5.90
2023-02-25T19:21:55.717Z,5.80
2023-02-25T19:28:14.266Z,5.80
2023-02-25T19:34:32.641Z,5.70
2023-02-25T19:40:27.148Z,5.60
2023-02-25T19:46:22.945Z,5.50
2023-02-25T19:52:41.721Z,5.60
2023-02-25T19:59:00.108Z,5.50
2023-02-25T20:04:54.485Z,5.50
2023-02-25T20:10:50.066Z,5.50
2023-02-25T20:17:08.517Z,5.60
2023-02-25T20:23:27.228Z,5.60
2023-02-25T20:29:21.643Z,5.70
2023-02-25T20:35:20.923Z,5.80
2023-02-25T20:41:46.070Z,5.60
2023-02-25T20:48:04.578Z,5.40
2023-02-25T20:53:59.050Z,5.30
2023-02-25T20:59:54.297Z,5.30
2023-02-25T21:06:13.409Z,5.20
2023-02-25T21:12:31.844Z,5.30
2023-02-25T21:18:26.801Z,5.30
2023-02-25T21:24:21.346Z,5.20
2023-02-25T21:30:40.268Z,5.20
2023-02-25T21:36:58.760Z,5.10
2023-02-25T21:42:53.163Z,5.00
2023-02-25T21:48:47.741Z,4.90
2023-02-25T21:55:09.515Z,4.90
2023-02-25T22:01:29.976Z,4.90
2023-02-25T22:07:24.388Z,4.80
2023-02-25T22:13:18.822Z,4.80
2023-02-25T22:19:37.324Z,4.80
2023-02-25T22:25:55.672Z,4.90
2023-02-25T22:31:50.363Z,4.90
2023-02-25T22:37:45.012Z,4.80
2023-02-25T22:44:03.703Z,4.90
2023-02-25T22:50:22.075Z,4.90
2023-02-25T22:56:16.537Z,4.90
2023-02-25T23:02:10.992Z,4.80
2023-02-25T23:08:29.540Z,4.80
2023-02-25T23:14:47.924Z,4.80
2023-02-25T23:20:42.364Z,4.80
2023-02-25T23:26:38.950Z,4.70
2023-02-25T23:32:57.850Z,4.70
2023-02-25T23:39:16.263Z,4.70
2023-02-25T23:45:12.738Z,4.60
2023-02-25T23:52:57.835Z,4.70
2023-02-25T23:59:16.683Z,4.60
